Time;durP1;ratioP1;P1;durP2;ratioP2;P2;SDS_P1;SDS_P2;PMS_P1;PMS_P2;Temp;Humidity;BMP_temperature;BMP_pressure;BME280_temperature;BME280_humidity;BME280_pressure;Samples;Min_cycle;Max_cycle;Signal;HPM_P1;HPM_P2
2021/05/25 00:00:28;;;;;;;0.80;0.70;;;;;;;12.60;64.11;99037.47;5008396;28;20046;-83
2021/05/25 00:02:55;;;;;;;0.82;0.70;;;;;;;12.58;64.26;99037.56;5012950;28;20499;-83
2021/05/25 00:05:28;;;;;;;0.90;0.70;;;;;;;12.55;64.66;99032.53;5011720;28;20053;-83
2021/05/25 00:07:55;;;;;;;1.15;0.65;;;;;;;12.55;64.45;99042.22;5013368;28;20050;-83
2021/05/25 00:10:27;;;;;;;1.38;0.80;;;;;;;12.53;64.72;99037.09;5012851;28;20053;-84
2021/05/25 00:12:54;;;;;;;0.75;0.75;;;;;;;12.51;64.57;99034.56;5012506;28;20054;-83
2021/05/25 00:15:24;;;;;;;1.05;0.90;;;;;;;12.49;64.74;99031.19;5009441;28;20053;-83
2021/05/25 00:17:51;;;;;;;1.00;0.90;;;;;;;12.50;64.73;99040.81;4993143;28;20058;-83
2021/05/25 00:20:20;;;;;;;0.73;0.73;;;;;;;12.49;64.81;99046.19;4992601;28;20042;-83
2021/05/25 00:22:47;;;;;;;0.85;0.85;;;;;;;12.49;64.79;99043.56;4992815;28;20058;-83
2021/05/25 00:25:16;;;;;;;1.00;0.90;;;;;;;12.47;64.88;99048.09;4992873;28;20061;-83
2021/05/25 00:27:43;;;;;;;0.88;0.82;;;;;;;12.46;64.83;99046.44;4993025;28;20054;-84
2021/05/25 00:30:11;;;;;;;1.23;0.82;;;;;;;12.44;64.79;99043.91;4992752;28;20096;-83
2021/05/25 00:32:38;;;;;;;1.42;0.73;;;;;;;12.42;64.92;99037.91;4998697;28;20050;-83
2021/05/25 00:35:06;;;;;;;1.02;0.82;;;;;;;12.40;65.12;99041.63;5012127;28;20104;-83
2021/05/25 00:37:33;;;;;;;1.25;1.00;;;;;;;12.38;65.08;99034.66;5012468;28;20099;-83
2021/05/25 00:39:59;;;;;;;0.93;0.85;;;;;;;12.36;65.19;99036.56;5012380;28;20046;-83
2021/05/25 00:42:26;;;;;;;2.17;1.63;;;;;;;12.34;65.04;99037.66;5011887;28;20053;-83
2021/05/25 00:44:53;;;;;;;1.52;1.23;;;;;;;12.32;65.13;99044.84;5012060;28;20802;-84
2021/05/25 00:47:34;;;;;;;2.00;1.58;;;;;;;12.27;65.55;99042.56;5012018;28;20061;-83
2021/05/25 00:50:11;;;;;;;1.95;1.38;;;;;;;12.26;65.38;99046.13;4995379;28;20050;-84
2021/05/25 00:52:45;;;;;;;1.98;1.50;;;;;;;12.23;65.84;99047.22;4992867;28;20050;-84
2021/05/25 00:55:16;;;;;;;3.17;1.60;;;;;;;12.24;65.52;99048.91;4991663;28;20062;-83
2021/05/25 00:57:44;;;;;;;1.65;1.50;;;;;;;12.24;65.65;99046.28;4992526;28;20050;-83
2021/05/25 01:00:12;;;;;;;4.00;1.92;;;;;;;12.24;65.70;99048.06;4992298;28;20054;-84
2021/05/25 01:02:38;;;;;;;2.30;2.10;;;;;;;12.22;65.67;99048.19;4992344;28;20050;-84
2021/05/25 01:05:08;;;;;;;3.50;2.10;;;;;;;12.22;65.66;99045.53;4998248;28;20058;-83
2021/05/25 01:07:35;;;;;;;3.95;2.70;;;;;;;12.22;65.66;99047.31;5016244;28;20060;-83
2021/05/25 01:10:04;;;;;;;2.55;2.30;;;;;;;12.21;65.67;99037.72;5015234;28;20050;-84
2021/05/25 01:12:32;;;;;;;3.03;2.72;;;;;;;12.21;65.80;99048.28;5015854;28;20061;-83
2021/05/25 01:15:06;;;;;;;2.67;2.47;;;;;;;12.20;65.87;99041.34;5016047;28;20054;-83
2021/05/25 01:17:33;;;;;;;3.20;2.38;;;;;;;12.22;65.95;99052.59;5015810;28;20058;-83
2021/05/25 01:20:00;;;;;;;3.00;2.70;;;;;;;12.21;66.00;99057.06;5016238;28;20042;-83
2021/05/25 01:22:28;;;;;;;3.22;2.83;;;;;;;12.22;65.98;99052.59;5015392;28;20061;-83
2021/05/25 01:24:54;;;;;;;3.13;2.78;;;;;;;12.22;65.93;99047.31;5015615;28;20053;-83
2021/05/25 01:27:21;;;;;;;3.30;2.70;;;;;;;12.22;65.92;99047.31;5015869;28;20057;-83
2021/05/25 01:29:48;;;;;;;3.33;3.03;;;;;;;12.21;65.86;99046.50;5015538;28;20050;-83
2021/05/25 01:32:15;;;;;;;4.75;3.17;;;;;;;12.21;65.74;99049.13;5015777;28;20105;-83
2021/05/25 01:34:42;;;;;;;3.47;3.10;;;;;;;12.22;65.69;99042.03;5015730;28;20056;-83
2021/05/25 01:37:08;;;;;;;4.88;3.03;;;;;;;12.19;65.60;99045.75;5014907;28;20496;-83
2021/05/25 01:39:35;;;;;;;3.92;3.10;;;;;;;12.18;65.52;99054.63;5013679;28;20061;-83
2021/05/25 01:42:02;;;;;;;4.07;3.33;;;;;;;12.17;65.67;99052.09;5015556;28;20400;-83
2021/05/25 01:44:28;;;;;;;4.45;3.20;;;;;;;12.17;65.76;99052.09;5015064;28;20546;-83
2021/05/25 01:46:55;;;;;;;4.35;3.42;;;;;;;12.15;65.73;99054.03;5015300;28;20058;-83
2021/05/25 01:49:21;;;;;;;4.15;3.50;;;;;;;12.14;65.51;99049.72;5014114;28;20064;-83
2021/05/25 01:51:50;;;;;;;3.83;3.38;;;;;;;12.12;65.63;99048.00;5015361;28;20053;-83
2021/05/25 01:54:18;;;;;;;5.57;3.45;;;;;;;12.10;65.85;99049.94;5012677;28;20403;-83
2021/05/25 01:56:45;;;;;;;3.97;3.13;;;;;;;12.07;65.60;99047.53;4995473;28;20058;-83
2021/05/25 01:59:12;;;;;;;3.40;2.45;;;;;;;12.06;65.39;99056.41;4995714;28;20054;-83
2021/05/25 02:01:38;;;;;;;2.92;2.38;;;;;;;12.03;65.15;99055.78;5004800;28;20053;-83
2021/05/25 02:04:05;;;;;;;2.42;2.10;;;;;;;12.00;65.08;99056.81;5014018;28;20050;-83
2021/05/25 02:06:32;;;;;;;4.95;1.98;;;;;;;11.97;64.80;99060.53;5014883;28;20061;-83
2021/05/25 02:09:03;;;;;;;2.22;1.70;;;;;;;11.92;64.94;99054.75;5015400;28;20054;-84
2021/05/25 02:11:30;;;;;;;3.80;1.73;;;;;;;11.88;64.91;99055.13;5006096;28;20050;-83
2021/05/25 02:13:56;;;;;;;2.10;1.63;;;;;;;11.83;64.84;99061.56;4995160;28;20054;-84
2021/05/25 02:16:23;;;;;;;2.60;1.55;;;;;;;11.80;64.76;99069.69;4994020;28;20050;-81
2021/05/25 02:18:49;;;;;;;2.45;1.70;;;;;;;11.75;64.94;99063.91;4995078;28;20063;-83
2021/05/25 02:21:19;;;;;;;1.65;1.55;;;;;;;11.70;64.92;99058.16;4994802;28;20050;-83
2021/05/25 02:23:47;;;;;;;3.70;1.75;;;;;;;11.67;65.11;99056.53;4994946;28;20054;-83
2021/05/25 02:26:14;;;;;;;2.42;1.80;;;;;;;11.65;65.27;99065.53;4994890;28;20058;-83
2021/05/25 02:28:41;;;;;;;2.33;1.45;;;;;;;11.62;65.02;99063.13;4996050;28;20150;-83
2021/05/25 02:31:08;;;;;;;2.35;1.63;;;;;;;11.58;65.20;99068.63;4994863;28;20488;-83
2021/05/25 02:33:36;;;;;;;2.10;1.58;;;;;;;11.57;65.25;99068.72;4994888;28;20137;-83
2021/05/25 02:36:03;;;;;;;2.28;1.60;;;;;;;11.55;65.45;99075.91;4994680;28;20058;-83
2021/05/25 02:38:31;;;;;;;2.17;1.60;;;;;;;11.54;65.57;99068.94;4993830;28;20046;-83
2021/05/25 02:40:59;;;;;;;3.30;2.10;;;;;;;11.55;65.71;99068.00;4994381;28;20054;-84
2021/05/25 02:43:28;;;;;;;2.58;1.85;;;;;;;11.56;65.67;99064.41;4993514;28;20419;-83
2021/05/25 02:45:55;;;;;;;2.25;1.80;;;;;;;11.56;65.54;99064.41;5013681;28;20056;-83
2021/05/25 02:48:22;;;;;;;1.75;1.63;;;;;;;11.55;65.56;99066.19;5014080;28;20054;-83
2021/05/25 02:50:49;;;;;;;4.18;1.75;;;;;;;11.55;65.57;99060.94;5014616;28;20049;-83
2021/05/25 02:53:17;;;;;;;2.83;1.55;;;;;;;11.54;65.66;99061.88;5014370;28;20062;-83
2021/05/25 02:55:44;;;;;;;2.88;1.75;;;;;;;11.55;65.52;99068.00;5014134;28;20061;-83
2021/05/25 02:58:11;;;;;;;3.80;1.77;;;;;;;11.54;65.47;99071.56;5012778;28;20054;-83
2021/05/25 03:00:40;;;;;;;4.10;1.77;;;;;;;11.54;65.45;99075.06;5013897;28;20054;-83
2021/05/25 03:03:09;;;;;;;2.60;1.80;;;;;;;11.51;65.41;99080.53;5014169;28;20073;-83
2021/05/25 03:05:36;;;;;;;5.13;1.65;;;;;;;11.51;65.35;99083.19;5014134;28;20049;-82
2021/05/25 03:08:04;;;;;;;5.13;1.80;;;;;;;11.49;65.67;99079.84;5014057;28;20050;-83
2021/05/25 03:10:34;;;;;;;2.65;1.70;;;;;;;11.49;65.55;99081.63;5006510;28;20053;-83
2021/05/25 03:13:03;;;;;;;2.00;1.48;;;;;;;11.49;65.46;99082.47;4993170;28;20054;-82
2021/05/25 03:15:35;;;;;;;2.70;1.60;;;;;;;11.47;65.59;99081.72;4993778;28;20060;-82
2021/05/25 03:18:02;;;;;;;3.60;1.80;;;;;;;11.46;65.51;99080.91;4993906;28;20054;-83
2021/05/25 03:20:30;;;;;;;2.60;1.83;;;;;;;11.45;65.59;99088.91;4993672;28;20175;-82
2021/05/25 03:22:57;;;;;;;2.97;1.80;;;;;;;11.44;65.50;99076.69;4993883;28;20524;-82
2021/05/25 03:25:24;;;;;;;2.63;1.55;;;;;;;11.44;65.48;99082.78;4994030;28;20412;-82
2021/05/25 03:27:51;;;;;;;2.55;1.70;;;;;;;11.44;65.42;99087.22;5005829;28;20076;-83
2021/05/25 03:30:21;;;;;;;2.28;1.48;;;;;;;11.43;65.38;99085.53;5013384;28;20053;-83
2021/05/25 03:32:48;;;;;;;2.20;1.52;;;;;;;11.44;65.51;99088.06;5013360;28;20495;-82
2021/05/25 03:35:17;;;;;;;2.78;1.77;;;;;;;11.44;65.55;99092.50;5013064;28;20050;-83
2021/05/25 03:37:45;;;;;;;2.22;1.55;;;;;;;11.44;65.48;99095.13;5013538;28;20077;-83
2021/05/25 03:40:13;;;;;;;2.28;1.60;;;;;;;11.43;65.52;99101.34;5013197;28;20058;-83
2021/05/25 03:42:44;;;;;;;3.40;1.70;;;;;;;11.42;65.56;99099.66;5012658;28;20046;-82
2021/05/25 03:45:11;;;;;;;3.60;1.88;;;;;;;11.42;65.50;99099.66;5012886;28;20057;-82
2021/05/25 03:47:37;;;;;;;2.35;1.60;;;;;;;11.41;65.61;99113.78;5013092;28;20096;-83
2021/05/25 03:50:08;;;;;;;2.17;1.80;;;;;;;11.42;65.49;99115.47;5012973;28;20430;-83
2021/05/25 03:52:37;;;;;;;5.57;2.13;;;;;;;11.41;65.51;99103.25;5011636;28;20050;-83
2021/05/25 03:55:14;;;;;;;2.10;1.90;;;;;;;11.41;65.58;99116.44;5013067;28;20053;-83
2021/05/25 04:00:08;;;;;;;4.35;2.13;;;;;;;11.43;65.89;99107.47;5010819;28;20061;-83
2021/05/25 04:02:36;;;;;;;5.75;2.17;;;;;;;11.45;65.67;99117.91;5012689;28;20049;-83
2021/05/25 04:05:04;;;;;;;8.80;2.67;;;;;;;11.45;65.62;99120.53;5012707;28;20050;-83
2021/05/25 04:07:31;;;;;;;3.58;2.42;;;;;;;11.45;65.47;99115.25;5012762;28;20054;-83
2021/05/25 04:09:58;;;;;;;2.75;2.22;;;;;;;11.46;65.54;99115.16;5012881;28;20049;-83
2021/05/25 04:12:24;;;;;;;4.28;2.33;;;;;;;11.45;65.50;99120.53;5012695;28;20491;-82
2021/05/25 04:14:51;;;;;;;3.88;1.98;;;;;;;11.44;65.60;99119.69;5012587;28;20046;-83
2021/05/25 04:17:17;;;;;;;2.58;2.20;;;;;;;11.42;65.51;99121.59;5012725;28;20077;-83
2021/05/25 04:19:44;;;;;;;5.72;2.50;;;;;;;11.41;65.41;99119.91;5012492;28;20053;-83
2021/05/25 04:22:11;;;;;;;3.85;2.10;;;;;;;11.40;65.54;99114.75;5010790;28;20053;-82
2021/05/25 04:24:37;;;;;;;3.35;2.25;;;;;;;11.40;65.24;99117.38;5012222;28;20049;-83
2021/05/25 04:27:04;;;;;;;2.95;2.33;;;;;;;11.38;65.34;99120.13;5012430;28;20430;-83
2021/05/25 04:29:31;;;;;;;5.32;2.30;;;;;;;11.37;65.40;99126.34;5012391;28;20065;-83
2021/05/25 04:31:58;;;;;;;3.35;2.28;;;;;;;11.37;65.64;99126.34;5012074;28;20057;-83
2021/05/25 04:34:25;;;;;;;4.07;2.67;;;;;;;11.38;65.51;99124.53;4997750;28;20046;-83
2021/05/25 04:36:52;;;;;;;3.67;2.15;;;;;;;11.37;65.48;99134.25;4993008;28;20080;-83
2021/05/25 04:39:18;;;;;;;5.28;2.28;;;;;;;11.37;65.31;99134.25;4991853;28;20054;-83
2021/05/25 04:41:45;;;;;;;4.72;2.20;;;;;;;11.38;65.50;99137.72;4992326;28;20050;-83
2021/05/25 04:44:12;;;;;;;4.97;2.40;;;;;;;11.37;65.51;99139.53;4992585;28;20054;-82
2021/05/25 04:46:38;;;;;;;5.10;2.10;;;;;;;11.38;65.71;99151.75;4992669;28;20392;-83
2021/05/25 04:49:05;;;;;;;2.53;1.85;;;;;;;11.39;65.57;99142.03;4992824;28;20389;-83
2021/05/25 04:51:32;;;;;;;4.22;2.10;;;;;;;11.41;65.65;99142.78;4992623;28;20467;-83
2021/05/25 04:53:58;;;;;;;4.18;2.40;;;;;;;11.42;65.52;99137.41;4992314;28;20057;-83
2021/05/25 04:56:25;;;;;;;5.10;1.95;;;;;;;11.44;65.45;99140.75;4992815;28;20057;-83
2021/05/25 04:58:52;;;;;;;3.33;1.73;;;;;;;11.45;65.30;99141.63;4992450;28;20084;-83
2021/05/25 05:01:18;;;;;;;3.67;2.20;;;;;;;11.45;65.05;99141.63;4992531;28;20050;-83
2021/05/25 05:03:45;;;;;;;4.30;2.20;;;;;;;11.44;65.23;99142.56;5006677;28;20080;-82
2021/05/25 05:06:12;;;;;;;3.05;1.98;;;;;;;11.42;65.10;99145.31;5012321;28;20062;-82
2021/05/25 05:08:43;;;;;;;2.80;2.00;;;;;;;11.41;64.99;99145.41;5011717;28;20050;-83
2021/05/25 05:11:10;;;;;;;4.35;2.03;;;;;;;11.41;65.07;99145.41;5011783;28;20054;-83
2021/05/25 05:13:37;;;;;;;3.53;2.00;;;;;;;11.41;65.18;99155.97;5011823;28;20061;-83
2021/05/25 05:16:04;;;;;;;2.75;1.70;;;;;;;11.41;65.06;99143.63;5009435;28;20050;-83
2021/05/25 05:18:30;;;;;;;7.45;1.95;;;;;;;11.41;65.03;99146.28;4992879;28;20496;-83
2021/05/25 05:20:57;;;;;;;4.65;2.03;;;;;;;11.42;65.19;99160.28;4991003;28;20058;-83
2021/05/25 05:23:23;;;;;;;3.88;1.50;;;;;;;11.44;65.21;99161.03;4992159;28;20491;-83
2021/05/25 05:25:50;;;;;;;3.15;1.55;;;;;;;11.46;65.18;99161.75;4992197;28;20464;-83
2021/05/25 05:28:17;;;;;;;4.00;1.70;;;;;;;11.49;65.43;99156.25;4992042;28;20054;-83
2021/05/25 05:30:43;;;;;;;5.28;1.83;;;;;;;11.53;65.45;99159.50;4999349;28;20057;-83
2021/05/25 05:33:10;;;;;;;4.22;2.13;;;;;;;11.56;65.35;99159.31;5011701;28;20077;-83
2021/05/25 05:35:37;;;;;;;3.38;1.65;;;;;;;11.59;65.20;99159.91;5011894;28;20081;-83
2021/05/25 05:38:03;;;;;;;3.42;1.65;;;;;;;11.63;65.13;99159.72;5012081;28;20050;-83
2021/05/25 05:40:34;;;;;;;4.70;1.85;;;;;;;11.65;64.96;99163.91;5010513;28;20104;-84
2021/05/25 05:43:05;;;;;;;4.40;1.67;;;;;;;11.68;65.01;99170.75;5011879;28;20046;-83
2021/05/25 05:45:32;;;;;;;2.40;1.40;;;;;;;11.69;64.91;99160.13;4998497;28;20463;-84
2021/05/25 05:47:59;;;;;;;2.55;1.30;;;;;;;11.70;64.91;99164.44;5001716;28;20053;-84
2021/05/25 05:50:26;;;;;;;2.22;1.60;;;;;;;11.72;65.14;99153.78;5011727;28;20089;-83
2021/05/25 05:52:52;;;;;;;3.78;1.50;;;;;;;11.75;64.87;99155.34;5015667;28;20049;-83
2021/05/25 05:55:19;;;;;;;4.03;1.30;;;;;;;11.78;64.61;99163.88;5014599;28;20435;-84
2021/05/25 05:57:47;;;;;;;6.55;1.50;;;;;;;11.80;64.67;99164.63;5015827;28;20057;-84
2021/05/25 06:00:16;;;;;;;4.82;1.42;;;;;;;11.81;64.52;99163.66;5016361;28;20057;-84
2021/05/25 06:02:42;;;;;;;2.80;1.30;;;;;;;11.83;64.44;99142.47;5015346;28;20049;-84
2021/05/25 06:05:10;;;;;;;8.02;1.70;;;;;;;11.82;64.64;99160.06;5015446;28;20060;-84
2021/05/25 06:07:37;;;;;;;5.03;1.60;;;;;;;11.84;64.55;99166.09;5015062;28;20058;-84
2021/05/25 06:10:05;;;;;;;2.80;1.27;;;;;;;11.85;64.74;99169.56;5015470;28;20096;-83
2021/05/25 06:12:32;;;;;;;2.70;1.50;;;;;;;11.87;64.78;99167.66;5014403;28;20042;-84
2021/05/25 06:15:00;;;;;;;4.15;1.70;;;;;;;11.89;64.66;99162.28;5015410;28;20065;-84
2021/05/25 06:17:26;;;;;;;4.63;1.35;;;;;;;11.90;64.77;99167.44;5015215;28;20430;-85
2021/05/25 06:19:54;;;;;;;4.32;1.45;;;;;;;11.93;64.73;99163.75;5015219;28;20077;-84
2021/05/25 06:22:22;;;;;;;2.58;1.30;;;;;;;11.96;64.81;99172.25;5014480;28;20415;-84
2021/05/25 06:24:50;;;;;;;1.83;1.20;;;;;;;12.01;65.07;99164.03;5014910;28;20054;-83
2021/05/25 06:27:17;;;;;;;2.75;1.48;;;;;;;12.05;64.50;99167.28;5014651;28;20125;-84
2021/05/25 06:29:44;;;;;;;2.80;1.35;;;;;;;12.06;64.20;99161.91;5014785;28;20492;-84
2021/05/25 06:32:11;;;;;;;2.67;1.58;;;;;;;12.09;64.40;99161.72;5013598;28;20080;-84
2021/05/25 06:34:37;;;;;;;3.15;1.58;;;;;;;12.11;64.15;99167.69;5014811;28;20053;-84
2021/05/25 06:37:04;;;;;;;3.33;1.63;;;;;;;12.14;64.23;99165.81;5014718;28;20049;-85
2021/05/25 06:39:31;;;;;;;3.65;1.50;;;;;;;12.17;64.10;99165.56;5014822;28;20054;-84
2021/05/25 06:41:58;;;;;;;3.70;1.50;;;;;;;12.18;64.05;99169.91;5014331;28;20056;-83
2021/05/25 06:44:24;;;;;;;4.65;2.25;;;;;;;12.20;64.07;99173.25;5014315;28;20503;-84
2021/05/25 06:46:51;;;;;;;2.78;1.70;;;;;;;12.21;64.22;99167.88;5013041;28;20492;-84
2021/05/25 06:49:17;;;;;;;3.90;1.55;;;;;;;12.24;64.05;99167.66;5014393;28;20104;-84
2021/05/25 06:51:45;;;;;;;2.63;1.58;;;;;;;12.29;63.89;99172.56;5014150;28;20133;-84
2021/05/25 06:54:13;;;;;;;2.38;1.45;;;;;;;12.32;64.20;99171.50;5013085;28;20054;-85
2021/05/25 06:56:40;;;;;;;2.65;1.40;;;;;;;12.36;64.17;99179.09;5014273;28;20062;-84
2021/05/25 06:59:06;;;;;;;3.60;1.35;;;;;;;12.42;64.16;99187.50;5015405;28;20050;-84
2021/05/25 07:01:33;;;;;;;3.20;1.38;;;;;;;12.48;64.13;99176.47;5013649;28;20526;-84
2021/05/25 07:04:00;;;;;;;3.72;1.60;;;;;;;12.53;63.49;99184.06;5013205;28;20054;-84
2021/05/25 07:06:26;;;;;;;2.38;1.67;;;;;;;12.58;63.60;99179.28;5013638;28;20496;-84
2021/05/25 07:08:53;;;;;;;2.60;1.25;;;;;;;12.61;63.22;99179.91;5012999;28;20058;-85
2021/05/25 07:11:21;;;;;;;2.60;1.55;;;;;;;12.64;63.29;99186.75;5013807;28;20050;-84
2021/05/25 07:13:47;;;;;;;3.05;1.65;;;;;;;12.64;63.10;99187.59;5012340;28;20052;-84
2021/05/25 07:16:20;;;;;;;3.88;1.27;;;;;;;12.64;62.60;99190.22;5013513;28;20515;-84
2021/05/25 07:18:52;;;;;;;3.00;1.45;;;;;;;12.65;62.62;99193.72;5014222;28;20054;-84
2021/05/25 07:21:22;;;;;;;2.28;1.50;;;;;;;12.64;62.84;99184.94;5013344;28;20061;-84
2021/05/25 07:23:50;;;;;;;4.18;1.42;;;;;;;12.65;63.07;99188.44;5012451;28;20084;-84
2021/05/25 07:26:17;;;;;;;2.05;1.63;;;;;;;12.67;63.09;99196.25;5013671;28;20054;-84
2021/05/25 07:28:50;;;;;;;3.38;1.30;;;;;;;12.70;63.03;99191.56;5014011;28;20070;-85
2021/05/25 07:31:21;;;;;;;2.90;1.60;;;;;;;12.76;63.53;99190.28;5012609;28;20494;-84
2021/05/25 07:33:47;;;;;;;4.82;1.27;;;;;;;12.85;63.47;99191.34;5013961;28;20054;-82
2021/05/25 07:36:14;;;;;;;3.75;1.52;;;;;;;12.92;63.81;99197.00;5013822;28;20168;-85
2021/05/25 07:38:40;;;;;;;3.72;1.40;;;;;;;13.00;63.39;99192.84;5012251;28;20045;-85
2021/05/25 07:41:07;;;;;;;4.03;1.30;;;;;;;13.09;63.03;99201.84;5013497;28;20570;-84
2021/05/25 07:43:34;;;;;;;2.58;1.38;;;;;;;13.15;62.74;99193.47;5014020;28;20065;-84
2021/05/25 07:46:01;;;;;;;3.42;1.38;;;;;;;13.22;62.83;99200.91;5013019;28;20073;-84
2021/05/25 07:48:27;;;;;;;3.15;1.30;;;;;;;13.27;62.57;99202.25;5008364;28;20397;-85
2021/05/25 07:50:54;;;;;;;2.22;1.30;;;;;;;13.32;62.34;99204.53;4993729;28;20046;-83
2021/05/25 07:53:21;;;;;;;3.55;1.40;;;;;;;13.36;62.11;99206.00;4993616;28;20096;-84
2021/05/25 07:55:48;;;;;;;2.13;1.17;;;;;;;13.37;62.30;99210.31;4993746;28;20054;-84
2021/05/25 07:58:15;;;;;;;2.47;1.23;;;;;;;13.41;61.63;99210.91;4993372;28;20050;-85
2021/05/25 08:00:42;;;;;;;2.08;1.08;;;;;;;13.42;61.35;99210.78;4993556;28;20054;-84
2021/05/25 08:03:10;;;;;;;2.85;1.25;;;;;;;13.43;61.15;99212.47;4993734;28;20050;-84
2021/05/25 08:05:36;;;;;;;2.08;1.17;;;;;;;13.44;61.31;99215.97;4993327;28;20065;-83
2021/05/25 08:08:04;;;;;;;2.10;1.20;;;;;;;13.43;61.50;99211.66;4992042;28;20573;-84
2021/05/25 08:10:31;;;;;;;2.45;1.10;;;;;;;13.45;61.52;99216.81;4992917;28;20050;-84
2021/05/25 08:12:58;;;;;;;2.97;1.50;;;;;;;13.48;61.65;99217.44;4993239;28;20109;-84
2021/05/25 08:15:26;;;;;;;4.45;1.30;;;;;;;13.52;61.43;99218.88;4993092;28;20061;-84
2021/05/25 08:20:32;;;;;;;3.03;1.17;;;;;;;13.64;61.72;99218.91;4992214;28;20137;-84
2021/05/25 08:23:18;;;;;;;2.58;1.35;;;;;;;13.71;61.07;99227.19;4992531;28;20077;-84
2021/05/25 08:25:45;;;;;;;2.97;1.38;;;;;;;13.75;60.99;99220.69;4992739;28;20054;-84
2021/05/25 08:28:13;;;;;;;3.50;1.30;;;;;;;13.79;61.15;99216.81;4993395;28;20380;-84
2021/05/25 08:30:41;;;;;;;2.30;1.33;;;;;;;13.84;61.18;99216.47;4993056;28;20058;-84
2021/05/25 08:33:12;;;;;;;3.92;1.65;;;;;;;13.94;61.65;99222.69;4993128;28;20050;-84
2021/05/25 08:35:41;;;;;;;3.78;1.30;;;;;;;14.05;61.85;99224.47;4991886;28;20046;-84
2021/05/25 08:38:10;;;;;;;3.42;1.52;;;;;;;14.16;62.13;99224.47;4991505;28;20106;-84
2021/05/25 08:40:37;;;;;;;2.85;1.45;;;;;;;14.30;61.90;99228.66;4992605;28;20057;-84
2021/05/25 08:43:05;;;;;;;1.88;1.30;;;;;;;14.44;61.84;99229.31;4991202;28;20054;-84
2021/05/25 08:45:32;;;;;;;3.55;1.80;;;;;;;14.55;60.88;99231.91;4992946;28;20045;-84
2021/05/25 08:47:59;;;;;;;4.63;1.48;;;;;;;14.66;61.04;99223.06;4992597;28;20085;-84
2021/05/25 08:50:47;;;;;;;4.65;1.33;;;;;;;14.76;60.26;99225.84;4992400;28;20113;-84
2021/05/25 08:53:14;;;;;;;4.30;1.50;;;;;;;14.86;60.64;99228.56;4992789;28;20067;-85
2021/05/25 08:55:43;;;;;;;3.85;1.50;;;;;;;14.95;59.56;99233.09;4992515;28;20062;-84
2021/05/25 08:58:09;;;;;;;5.45;2.10;;;;;;;15.02;59.33;99243.19;4992413;28;20058;-84
2021/05/25 09:00:36;;;;;;;3.45;1.73;;;;;;;15.05;58.80;99232.31;4992126;28;20054;-84
2021/05/25 09:03:03;;;;;;;1.95;1.45;;;;;;;15.06;58.73;99236.66;4992322;28;20053;-84
2021/05/25 09:05:30;;;;;;;2.97;1.25;;;;;;;15.06;58.16;99232.19;4994301;28;20050;-84
2021/05/25 09:07:58;;;;;;;4.32;1.23;;;;;;;15.03;57.58;99235.09;4992801;28;20054;-84
2021/05/25 09:13:02;;;;;;;6.35;1.20;;;;;;;14.93;57.56;99237.69;4993949;28;20050;-84
2021/05/25 09:15:29;;;;;;;3.70;1.55;;;;;;;14.87;57.82;99245.31;4993544;28;20424;-86
2021/05/25 09:18:07;;;;;;;4.60;1.50;;;;;;;14.76;57.00;99241.75;4993917;28;20050;-84
2021/05/25 09:20:37;;;;;;;3.05;1.48;;;;;;;14.71;57.38;99236.81;4992121;28;20077;-84
2021/05/25 09:23:04;;;;;;;3.95;1.48;;;;;;;14.70;58.51;99243.06;4999175;28;20061;-85
2021/05/25 09:25:32;;;;;;;3.78;1.58;;;;;;;14.69;58.38;99240.56;5013136;28;20049;-84
2021/05/25 09:28:00;;;;;;;3.03;1.55;;;;;;;14.71;58.66;99234.16;5017511;28;20053;-85
2021/05/25 09:30:32;;;;;;;3.05;1.50;;;;;;;14.77;58.66;99239.94;5016993;28;20057;-84
2021/05/25 09:33:10;;;;;;;1.83;1.30;;;;;;;14.84;57.89;99233.16;5016185;28;20042;-84
2021/05/25 09:35:41;;;;;;;2.47;1.48;;;;;;;14.93;58.05;99237.69;5017336;28;20422;-84
2021/05/25 09:38:12;;;;;;;3.63;1.52;;;;;;;15.03;58.27;99235.09;5016281;28;20192;-84
2021/05/25 09:40:49;;;;;;;2.20;1.23;;;;;;;15.13;57.48;99234.34;5015033;28;20061;-84
2021/05/25 09:43:21;;;;;;;3.03;1.33;;;;;;;15.20;57.45;99241.63;5016768;28;20112;-83
2021/05/25 09:45:55;;;;;;;4.13;1.35;;;;;;;15.26;56.56;99255.34;5017434;28;20058;-84
2021/05/25 09:48:23;;;;;;;3.67;1.60;;;;;;;15.34;57.45;99243.13;5017418;28;20057;-83
2021/05/25 09:50:50;;;;;;;2.40;1.40;;;;;;;15.40;57.79;99249.69;5017395;28;20061;-84
2021/05/25 09:53:23;;;;;;;3.45;1.15;;;;;;;15.46;57.41;99250.97;5016960;28;20474;-84
2021/05/25 09:56:01;;;;;;;2.47;1.20;;;;;;;15.45;56.23;99250.16;5015618;28;20054;-84
2021/05/25 09:58:33;;;;;;;5.07;1.52;;;;;;;15.47;55.63;99248.19;5017146;28;20058;-84
2021/05/25 10:01:01;;;;;;;3.20;1.35;;;;;;;15.49;56.58;99240.97;5016995;28;20082;-84
2021/05/25 10:03:29;;;;;;;2.45;1.10;;;;;;;15.50;57.23;99247.09;5017812;28;20053;-85
2021/05/25 10:06:01;;;;;;;4.53;1.50;;;;;;;15.53;57.08;99246.84;5017574;28;20072;-84
2021/05/25 10:08:29;;;;;;;1.17;1.07;;;;;;;15.58;56.56;99247.28;5016284;28;20061;-84
2021/05/25 10:10:58;;;;;;;3.08;1.30;;;;;;;15.64;56.08;99257.34;5017657;28;20077;-84
2021/05/25 10:13:27;;;;;;;5.10;1.50;;;;;;;15.70;57.06;99252.50;5017587;28;20503;-85
2021/05/25 10:15:54;;;;;;;4.18;1.40;;;;;;;15.80;57.30;99252.50;5017071;28;20061;-85
2021/05/25 10:20:59;;;;;;;2.25;1.40;;;;;;;16.07;56.21;99253.78;5017764;28;20050;-86
2021/05/25 10:23:32;;;;;;;3.30;1.55;;;;;;;16.20;56.16;99242.88;5017505;28;20622;-85
2021/05/25 10:26:01;;;;;;;4.05;1.38;;;;;;;16.31;56.08;99245.44;5017304;28;20050;-86
2021/05/25 10:28:28;;;;;;;2.55;1.10;;;;;;;16.40;55.99;99243.75;5016441;28;20050;-84
2021/05/25 10:30:57;;;;;;;2.67;1.55;;;;;;;16.47;55.74;99260.81;5016452;28;20073;-84
2021/05/25 10:33:29;;;;;;;2.83;1.63;;;;;;;16.54;53.46;99264.63;5015678;28;20049;-84
2021/05/25 10:35:58;;;;;;;2.83;1.95;;;;;;;16.62;55.20;99253.28;5015335;28;20050;-84
2021/05/25 10:38:29;;;;;;;2.13;1.52;;;;;;;16.70;53.39;99254.41;5013935;28;20064;-84
2021/05/25 10:41:05;;;;;;;1.85;1.60;;;;;;;16.78;53.17;99252.72;5014753;28;20115;-84
2021/05/25 10:43:33;;;;;;;3.22;1.77;;;;;;;16.97;55.53;99240.38;5014930;28;20056;-85
2021/05/25 10:46:14;;;;;;;3.45;2.30;;;;;;;17.14;55.01;99246.84;5014206;28;20096;-84
2021/05/25 10:49:11;;;;;;;3.65;2.35;;;;;;;17.48;54.29;99239.31;5010131;28;20054;-84
2021/05/25 10:51:50;;;;;;;2.42;2.22;;;;;;;17.89;53.10;99247.00;4993479;28;20401;-84
2021/05/25 10:54:24;;;;;;;2.35;2.00;;;;;;;18.31;53.92;99248.34;4994941;28;20054;-84
2021/05/25 10:56:51;;;;;;;1.92;1.77;;;;;;;18.66;55.30;99248.53;4994553;28;20054;-84
2021/05/25 10:59:19;;;;;;;3.00;2.20;;;;;;;18.89;52.85;99248.88;4994581;28;20062;-84
2021/05/25 11:01:54;;;;;;;5.60;2.20;;;;;;;18.97;48.71;99248.97;4994928;28;20520;-84
2021/05/25 11:04:34;;;;;;;3.30;2.20;;;;;;;18.97;50.10;99254.28;4995226;28;20054;-85
2021/05/25 11:07:21;;;;;;;2.20;2.00;;;;;;;18.93;50.58;99239.59;4994436;28;20050;-84
2021/05/25 11:09:47;;;;;;;3.47;2.58;;;;;;;18.95;52.33;99242.91;4994554;28;20061;-85
2021/05/25 11:12:15;;;;;;;3.08;2.22;;;;;;;19.06;52.60;99249.88;4994707;28;20062;-84
2021/05/25 11:15:15;;;;;;;4.40;2.67;;;;;;;19.19;51.20;99249.47;4994497;28;20109;-84
2021/05/25 11:17:46;;;;;;;3.22;2.10;;;;;;;19.34;50.90;99244.41;4994570;28;20404;-85
2021/05/25 11:20:28;;;;;;;5.07;2.15;;;;;;;19.28;48.66;99242.34;4994841;28;20054;-84
2021/05/25 11:22:54;;;;;;;3.13;2.20;;;;;;;19.23;49.10;99250.84;4993148;28;20058;-84
2021/05/25 11:25:41;;;;;;;5.18;2.58;;;;;;;18.99;47.22;99256.81;4994613;28;20091;-84
2021/05/25 11:28:07;;;;;;;4.05;2.05;;;;;;;18.85;48.25;99261.69;4995224;28;20057;-85
2021/05/25 11:30:37;;;;;;;3.60;2.30;;;;;;;18.64;48.67;99254.00;4995420;28;20066;-85
2021/05/25 11:33:04;;;;;;;3.50;2.42;;;;;;;18.47;48.64;99261.81;4993922;28;20508;-85
2021/05/25 11:35:33;;;;;;;3.13;1.98;;;;;;;18.33;48.43;99260.53;4995076;28;20046;-85
2021/05/25 11:38:03;;;;;;;5.13;2.22;;;;;;;18.28;49.47;99257.47;4995096;28;20062;-85
2021/05/25 11:40:33;;;;;;;7.60;3.00;;;;;;;18.27;48.51;99253.13;4995417;28;20124;-85
2021/05/25 11:42:59;;;;;;;3.28;2.75;;;;;;;18.32;48.96;99250.84;4994060;28;20053;-85
2021/05/25 11:45:28;;;;;;;4.63;2.47;;;;;;;18.35;48.77;99247.03;4994408;28;20492;-84
2021/05/25 11:48:01;;;;;;;6.82;2.10;;;;;;;18.36;48.91;99238.09;4994962;28;20077;-84
2021/05/25 11:50:29;;;;;;;;;;;;;;;18.36;49.85;99244.22;4994422;28;20053;-84